createdAt,value
2019-05-26T00:00:59.232Z,101145.23
2019-05-26T00:03:30.390Z,101139.34
2019-05-26T00:06:01.642Z,101135.73
2019-05-26T00:08:32.825Z,101138.70
2019-05-26T00:11:03.963Z,101140.09
2019-05-26T00:13:35.249Z,101139.75
2019-05-26T00:16:06.379Z,101138.84
2019-05-26T00:18:37.535Z,101135.28
2019-05-26T00:21:08.882Z,101138.20
2019-05-26T00:23:40.277Z,101135.37
2019-05-26T00:26:11.864Z,101127.72
2019-05-26T00:28:43.216Z,101132.43
2019-05-26T00:31:14.561Z,101123.00
2019-05-26T00:33:45.991Z,101124.08
2019-05-26T00:36:17.342Z,101123.88
2019-05-26T00:38:48.571Z,101116.24
2019-05-26T00:41:19.720Z,101120.09
2019-05-26T00:43:51.027Z,101113.50
2019-05-26T00:46:22.152Z,101115.09
2019-05-26T00:48:53.365Z,101112.25
2019-05-26T00:51:24.559Z,101113.41
2019-05-26T00:53:55.761Z,101111.11
2019-05-26T00:56:27.164Z,101112.80
2019-05-26T00:58:58.492Z,101112.63
2019-05-26T01:01:30.097Z,101117.43
2019-05-26T01:04:02.313Z,101111.52
2019-05-26T01:06:33.620Z,101119.77
2019-05-26T01:09:06.674Z,101115.67
2019-05-26T01:11:38.019Z,101118.14
2019-05-26T01:14:09.368Z,101120.27
2019-05-26T01:16:40.664Z,101122.84
2019-05-26T01:19:12.009Z,101119.62
2019-05-26T01:21:43.530Z,101120.47
2019-05-26T01:24:15.152Z,101116.34
2019-05-26T01:26:46.634Z,101119.31
2019-05-26T01:29:18.090Z,101114.41
2019-05-26T01:31:49.421Z,101110.86
2019-05-26T01:34:20.766Z,101106.50
2019-05-26T01:36:52.183Z,101110.78
2019-05-26T01:39:23.535Z,101105.85
2019-05-26T01:41:55.088Z,101103.88
2019-05-26T01:44:26.416Z,101109.09
2019-05-26T01:46:57.719Z,101108.51
2019-05-26T01:49:29.164Z,101106.14
2019-05-26T01:52:00.872Z,101108.63
2019-05-26T01:54:32.720Z,101110.63
2019-05-26T01:57:04.255Z,101096.72
2019-05-26T01:59:35.550Z,101106.21
2019-05-26T02:02:06.864Z,101107.93
2019-05-26T02:04:38.178Z,101105.56
2019-05-26T02:07:09.532Z,101099.23
2019-05-26T02:09:40.997Z,101099.90
2019-05-26T02:12:12.363Z,101107.80
2019-05-26T02:14:43.704Z,101099.90
2019-05-26T02:17:15.300Z,101100.81
2019-05-26T02:19:46.880Z,101104.36
2019-05-26T02:22:18.706Z,101102.13
2019-05-26T02:24:50.222Z,101102.20
2019-05-26T02:27:21.461Z,101103.92
2019-05-26T02:29:52.798Z,101104.02
2019-05-26T02:32:24.388Z,101104.36
2019-05-26T02:34:55.720Z,101101.22
2019-05-26T02:37:26.966Z,101099.24
2019-05-26T02:39:58.265Z,101098.77
2019-05-26T02:42:30.684Z,101099.84
2019-05-26T02:45:02.919Z,101095.34
2019-05-26T02:47:35.357Z,101092.19
2019-05-26T02:50:07.179Z,101095.67
2019-05-26T02:52:38.570Z,101092.45
2019-05-26T02:55:10.832Z,101088.76
2019-05-26T02:57:42.299Z,101092.23
2019-05-26T03:00:13.957Z,101094.69
2019-05-26T03:02:45.269Z,101095.53
2019-05-26T03:05:16.798Z,101095.71
2019-05-26T03:07:48.830Z,101096.45
2019-05-26T03:10:20.453Z,101102.30
2019-05-26T03:12:54.523Z,101098.02
2019-05-26T03:15:25.792Z,101095.56
2019-05-26T03:17:58.390Z,101100.61
2019-05-26T03:20:31.229Z,101093.37
2019-05-26T03:23:03.839Z,101086.71
2019-05-26T03:25:36.334Z,101079.14
2019-05-26T03:28:07.871Z,101083.42
2019-05-26T03:30:39.204Z,101075.45
2019-05-26T03:33:10.630Z,101083.74
2019-05-26T03:35:43.110Z,101077.09
2019-05-26T03:38:14.425Z,101081.84
2019-05-26T03:40:45.966Z,101089.01
2019-05-26T03:43:17.206Z,101082.10
2019-05-26T03:46:17.525Z,101080.94
2019-05-26T03:48:49.315Z,101078.56
2019-05-26T03:51:21.185Z,101080.79
2019-05-26T03:53:52.547Z,101073.77
2019-05-26T03:56:24.057Z,101071.14
2019-05-26T03:58:55.440Z,101067.27
2019-05-26T04:01:27.916Z,101071.80
2019-05-26T04:03:59.293Z,101067.12
2019-05-26T04:06:30.614Z,101062.07
2019-05-26T04:09:02.230Z,101060.02
2019-05-26T04:11:33.650Z,101054.83
2019-05-26T04:14:05.384Z,101055.08
2019-05-26T04:16:38.848Z,101046.92
2019-05-26T04:19:10.254Z,101045.02
2019-05-26T04:21:41.553Z,101049.76
2019-05-26T04:24:12.909Z,101053.19
2019-05-26T04:26:44.180Z,101047.73
2019-05-26T04:29:15.427Z,101047.53
2019-05-26T04:31:46.732Z,101047.78
2019-05-26T04:34:17.973Z,101045.86
2019-05-26T04:36:49.339Z,101043.54
2019-05-26T04:39:20.586Z,101044.15
2019-05-26T04:41:52.115Z,101037.22
2019-05-26T04:44:29.150Z,101040.03
2019-05-26T04:47:00.423Z,101038.78
2019-05-26T04:49:36.877Z,101035.88
2019-05-26T04:52:04.868Z,101038.25
2019-05-26T04:54:36.223Z,101038.89
2019-05-26T04:57:08.144Z,101034.66
2019-05-26T04:59:39.654Z,101037.50
2019-05-26T05:02:11.446Z,101038.20
2019-05-26T05:04:42.725Z,101041.55
2019-05-26T05:07:14.017Z,101032.25
2019-05-26T05:09:45.254Z,101028.49
2019-05-26T05:12:16.763Z,101031.42
2019-05-26T05:14:48.115Z,101028.17
2019-05-26T05:17:19.409Z,101024.51
2019-05-26T05:19:50.725Z,101026.94
2019-05-26T05:22:22.115Z,101024.48
2019-05-26T05:24:53.874Z,101027.41
2019-05-26T05:27:25.443Z,101030.69
2019-05-26T05:29:56.810Z,101032.36
2019-05-26T05:32:28.139Z,101021.58
2019-05-26T05:34:59.513Z,101012.63
2019-05-26T05:37:30.918Z,101005.92
2019-05-26T05:40:02.277Z,101007.98
2019-05-26T05:42:33.598Z,101010.15
2019-05-26T05:45:05.928Z,101010.55
2019-05-26T05:47:37.395Z,101014.69
2019-05-26T05:50:09.426Z,101006.91
2019-05-26T05:52:41.042Z,101007.85
2019-05-26T05:55:12.512Z,101001.25
2019-05-26T05:57:43.833Z,100999.58
2019-05-26T06:00:16.780Z,100996.93
2019-05-26T06:02:48.267Z,100997.20
2019-05-26T06:05:19.528Z,100998.84
2019-05-26T06:07:50.820Z,100998.80
2019-05-26T06:10:22.064Z,100991.95
2019-05-26T06:12:53.353Z,100997.05
2019-05-26T06:15:24.725Z,101000.78
2019-05-26T06:17:56.699Z,101000.13
2019-05-26T06:20:28.344Z,100994.69
2019-05-26T06:22:59.834Z,100987.06
2019-05-26T06:25:31.216Z,100992.36
2019-05-26T06:28:02.616Z,100992.22
2019-05-26T06:30:34.041Z,100986.41
2019-05-26T06:33:07.366Z,100977.91
2019-05-26T06:35:39.162Z,100974.76
2019-05-26T06:38:10.589Z,100968.13
2019-05-26T06:40:42.328Z,100966.73
2019-05-26T06:43:13.797Z,100968.92
2019-05-26T06:45:45.451Z,100966.60
2019-05-26T06:48:16.912Z,100964.20
2019-05-26T06:50:48.239Z,100964.06
2019-05-26T06:53:19.560Z,100963.97
2019-05-26T06:55:50.917Z,100967.35
2019-05-26T06:58:22.103Z,100973.34
2019-05-26T07:00:53.637Z,100978.00
2019-05-26T07:03:24.970Z,100972.87
2019-05-26T07:05:56.494Z,100971.68
2019-05-26T07:08:28.039Z,100960.46
2019-05-26T07:10:59.530Z,100958.91
2019-05-26T07:13:30.800Z,100965.25
2019-05-26T07:16:02.206Z,100960.16
2019-05-26T07:18:33.339Z,100951.97
2019-05-26T07:21:04.538Z,100960.25
2019-05-26T07:23:35.753Z,100955.31
2019-05-26T07:26:06.928Z,100953.41
2019-05-26T07:28:38.181Z,100959.41
2019-05-26T07:31:09.412Z,100955.22
2019-05-26T07:33:40.612Z,100943.09
2019-05-26T07:36:11.799Z,100942.95
2019-05-26T07:38:43.026Z,100942.42
2019-05-26T07:41:14.415Z,100934.76
2019-05-26T07:43:46.553Z,100942.77
2019-05-26T07:46:17.873Z,100936.05
2019-05-26T07:48:49.045Z,100938.81
2019-05-26T07:51:20.235Z,100938.53
2019-05-26T07:53:51.443Z,100931.16
2019-05-26T07:56:22.729Z,100934.87
2019-05-26T07:58:53.958Z,100932.14
2019-05-26T08:01:35.178Z,100927.16
2019-05-26T08:03:58.083Z,100942.72
2019-05-26T08:06:29.296Z,100929.52
2019-05-26T08:09:00.710Z,100929.69
2019-05-26T08:11:32.338Z,100924.53
2019-05-26T08:14:03.628Z,100934.48
2019-05-26T08:16:35.196Z,100923.55
2019-05-26T08:19:06.319Z,100916.72
2019-05-26T08:21:37.571Z,100915.61
2019-05-26T08:24:08.747Z,100927.70
2019-05-26T08:26:39.938Z,100912.76
2019-05-26T08:29:11.123Z,100912.24
2019-05-26T08:31:42.372Z,100913.21
2019-05-26T08:34:13.528Z,100914.66
2019-05-26T08:36:44.878Z,100909.45
2019-05-26T08:39:16.153Z,100902.89
2019-05-26T08:41:47.461Z,100892.77
2019-05-26T08:44:18.892Z,100894.16
2019-05-26T08:46:50.163Z,100895.58
2019-05-26T08:49:21.417Z,100896.57
2019-05-26T08:51:52.705Z,100903.42
2019-05-26T08:54:23.919Z,100898.23
2019-05-26T08:56:55.121Z,100885.41
2019-05-26T08:59:26.249Z,100877.60
2019-05-26T09:01:57.576Z,100888.93
2019-05-26T09:04:28.717Z,100873.02
2019-05-26T09:06:59.924Z,100878.92
2019-05-26T09:09:31.164Z,100872.77
2019-05-26T09:12:02.702Z,100862.61
2019-05-26T09:14:33.960Z,100866.25
2019-05-26T09:17:05.314Z,100879.09
2019-05-26T09:19:36.727Z,100891.59
2019-05-26T09:22:07.938Z,100868.97
2019-05-26T09:24:39.141Z,100871.02
2019-05-26T09:27:10.328Z,100862.73
2019-05-26T09:29:41.482Z,100875.64
2019-05-26T09:32:12.686Z,100844.11
2019-05-26T09:34:43.847Z,100853.55
2019-05-26T09:37:15.010Z,100845.19
2019-05-26T09:39:46.203Z,100842.12
2019-05-26T09:42:17.347Z,100837.27
2019-05-26T09:44:48.709Z,100853.70
2019-05-26T09:47:19.980Z,100836.77
2019-05-26T09:49:51.190Z,100836.37
2019-05-26T09:52:22.419Z,100835.46
2019-05-26T09:54:53.665Z,100822.11
2019-05-26T09:57:25.098Z,100831.02
2019-05-26T09:59:56.314Z,100812.87
2019-05-26T10:02:27.538Z,100812.94
2019-05-26T10:04:58.751Z,100817.73
2019-05-26T10:07:29.993Z,100818.27
2019-05-26T10:10:01.230Z,100822.38
2019-05-26T10:12:32.520Z,100807.69
2019-05-26T10:15:03.826Z,100835.73
2019-05-26T10:17:35.122Z,100836.56
2019-05-26T10:20:07.429Z,100807.57
2019-05-26T10:22:39.759Z,100803.09
2019-05-26T10:25:12.424Z,100806.66
2019-05-26T10:27:44.760Z,100796.93
2019-05-26T10:30:16.236Z,100811.20
2019-05-26T10:32:47.678Z,100804.55
2019-05-26T10:35:18.853Z,100800.13
2019-05-26T10:37:50.045Z,100809.94
2019-05-26T10:40:21.479Z,100790.40
2019-05-26T10:42:52.858Z,100795.84
2019-05-26T10:45:24.221Z,100792.87
2019-05-26T10:47:55.576Z,100795.72
2019-05-26T10:50:26.798Z,100800.77
2019-05-26T10:52:58.029Z,100781.31
2019-05-26T10:55:29.233Z,100780.98
2019-05-26T10:58:00.470Z,100796.24
2019-05-26T11:00:33.127Z,100798.02
2019-05-26T11:03:04.680Z,100794.83
2019-05-26T11:05:35.839Z,100793.09
2019-05-26T11:08:07.143Z,100787.32
2019-05-26T11:10:38.334Z,100789.18
2019-05-26T11:13:09.706Z,100776.81
2019-05-26T11:15:40.994Z,100770.23
2019-05-26T11:18:12.285Z,100773.41
2019-05-26T11:20:43.595Z,100761.48
2019-05-26T11:23:14.838Z,100760.22
2019-05-26T11:25:46.117Z,100755.82
2019-05-26T11:28:17.316Z,100762.52
2019-05-26T11:30:48.580Z,100752.25
2019-05-26T11:33:19.827Z,100751.41
2019-05-26T11:35:51.080Z,100758.57
2019-05-26T11:38:22.265Z,100761.25
2019-05-26T11:40:53.587Z,100750.55
2019-05-26T11:43:24.949Z,100752.80
2019-05-26T11:45:56.433Z,100753.66
2019-05-26T11:48:28.825Z,100754.50
2019-05-26T11:50:59.976Z,100744.28
2019-05-26T11:53:31.210Z,100751.88
2019-05-26T11:56:02.549Z,100743.05
2019-05-26T11:58:34.857Z,100731.49
2019-05-26T12:01:06.077Z,100747.59
2019-05-26T12:03:37.207Z,100736.05
2019-05-26T12:06:08.423Z,100740.14
2019-05-26T12:08:39.664Z,100728.64
2019-05-26T12:11:11.011Z,100724.22
2019-05-26T12:13:42.311Z,100712.66
2019-05-26T12:16:13.788Z,100717.59
2019-05-26T12:18:44.996Z,100720.73
2019-05-26T12:21:16.137Z,100719.81
2019-05-26T12:23:47.417Z,100709.56
2019-05-26T12:26:18.575Z,100714.49
2019-05-26T12:28:49.802Z,100728.34
2019-05-26T12:31:21.026Z,100707.80
2019-05-26T12:33:52.203Z,100690.42
2019-05-26T12:36:23.430Z,100689.06
2019-05-26T12:38:54.544Z,100686.38
2019-05-26T12:41:25.771Z,100686.39
2019-05-26T12:43:57.121Z,100674.75
2019-05-26T12:46:28.383Z,100681.01
2019-05-26T12:48:59.633Z,100678.31
2019-05-26T12:51:30.784Z,100678.75
2019-05-26T12:54:02.026Z,100672.08
2019-05-26T12:56:33.172Z,100685.95
2019-05-26T12:59:04.456Z,100673.00
2019-05-26T13:01:35.713Z,100681.05
2019-05-26T13:04:06.901Z,100683.70
2019-05-26T13:06:38.112Z,100680.16
2019-05-26T13:09:11.507Z,100675.66
2019-05-26T13:11:42.793Z,100674.34
2019-05-26T13:14:14.103Z,100675.23
2019-05-26T13:16:45.436Z,100682.33
2019-05-26T13:19:17.604Z,100670.27
2019-05-26T13:21:48.742Z,100678.30
2019-05-26T13:24:19.965Z,100674.27
2019-05-26T13:26:51.129Z,100673.83
2019-05-26T13:29:25.655Z,100685.02
2019-05-26T13:31:55.180Z,100673.83
2019-05-26T13:34:26.398Z,100674.72
2019-05-26T13:36:57.600Z,100678.27
2019-05-26T13:39:28.927Z,100684.55
2019-05-26T13:42:00.183Z,100679.22
2019-05-26T13:44:31.609Z,100674.33
2019-05-26T13:47:02.863Z,100667.19
2019-05-26T13:49:34.197Z,100666.27
2019-05-26T13:52:06.423Z,100659.56
2019-05-26T13:54:37.635Z,100679.20
2019-05-26T13:57:08.865Z,100664.39
2019-05-26T13:59:40.080Z,100656.25
2019-05-26T14:02:11.276Z,100655.28
2019-05-26T14:04:42.561Z,100645.31
2019-05-26T14:07:13.722Z,100651.09
2019-05-26T14:09:45.082Z,100652.94
2019-05-26T14:12:16.352Z,100642.20
2019-05-26T14:14:47.644Z,100638.64
2019-05-26T14:17:19.137Z,100635.94
2019-05-26T14:19:51.820Z,100636.89
2019-05-26T14:22:23.023Z,100644.06
2019-05-26T14:24:54.521Z,100649.91
2019-05-26T14:27:25.817Z,100645.48
2019-05-26T14:29:57.026Z,100638.81
2019-05-26T14:32:28.312Z,100648.71
2019-05-26T14:34:59.653Z,100654.59
2019-05-26T14:37:31.069Z,100640.69
2019-05-26T14:40:02.300Z,100629.52
2019-05-26T14:42:33.669Z,100642.03
2019-05-26T14:45:05.770Z,100634.40
2019-05-26T14:47:36.989Z,100633.93
2019-05-26T14:50:08.342Z,100614.17
2019-05-26T14:52:39.589Z,100615.07
2019-05-26T14:55:10.848Z,100621.74
2019-05-26T14:57:42.153Z,100616.83
2019-05-26T15:00:15.437Z,100612.32
2019-05-26T15:02:46.872Z,100624.34
2019-05-26T15:05:18.536Z,100607.33
2019-05-26T15:07:49.798Z,100603.23
2019-05-26T15:10:22.713Z,100605.77
2019-05-26T15:12:54.229Z,100597.93
2019-05-26T15:15:25.503Z,100598.02
2019-05-26T15:17:57.781Z,100621.90
2019-05-26T15:20:29.024Z,100592.27
2019-05-26T15:23:00.226Z,100590.08
2019-05-26T15:25:31.465Z,100600.08
2019-05-26T15:28:02.972Z,100597.97
2019-05-26T15:30:34.412Z,100586.49
2019-05-26T15:33:05.812Z,100605.52
2019-05-26T15:35:37.141Z,100598.12
2019-05-26T15:38:08.344Z,100631.89
2019-05-26T15:40:39.558Z,100603.82
2019-05-26T15:43:10.984Z,100590.50
2019-05-26T15:45:42.202Z,100587.38
2019-05-26T15:48:13.460Z,100607.56
2019-05-26T15:50:44.692Z,100600.42
2019-05-26T15:53:15.872Z,100576.28
2019-05-26T15:55:47.097Z,100590.59
2019-05-26T15:58:18.361Z,100582.55
2019-05-26T16:00:49.887Z,100565.14
2019-05-26T16:03:21.155Z,100566.53
2019-05-26T16:05:52.492Z,100588.89
2019-05-26T16:08:23.763Z,100573.28
2019-05-26T16:10:54.959Z,100568.83
2019-05-26T16:13:26.159Z,100569.75
2019-05-26T16:15:58.328Z,100560.36
2019-05-26T16:18:29.558Z,100551.86
2019-05-26T16:21:03.380Z,100556.33
2019-05-26T16:23:33.700Z,100559.02
2019-05-26T16:26:05.132Z,100549.66
2019-05-26T16:28:36.771Z,100551.43
2019-05-26T16:31:12.154Z,100546.54
2019-05-26T16:33:42.144Z,100536.27
2019-05-26T16:36:13.308Z,100545.20
2019-05-26T16:38:45.469Z,100540.72
2019-05-26T16:41:16.649Z,100542.98
2019-05-26T16:43:48.351Z,100546.05
2019-05-26T16:46:19.497Z,100530.89
2019-05-26T16:48:54.270Z,100527.33
2019-05-26T16:51:23.827Z,100531.36
2019-05-26T16:53:55.152Z,100526.44
2019-05-26T16:56:26.347Z,100513.95
2019-05-26T16:58:57.536Z,100516.61
2019-05-26T17:01:28.741Z,100509.91
2019-05-26T17:03:59.932Z,100515.29
2019-05-26T17:06:31.225Z,100511.70
2019-05-26T17:09:02.606Z,100514.38
2019-05-26T17:11:33.854Z,100519.75
2019-05-26T17:14:05.481Z,100513.06
2019-05-26T17:16:36.685Z,100516.19
2019-05-26T17:19:08.060Z,100518.41
2019-05-26T17:21:39.374Z,100514.41
2019-05-26T17:24:10.633Z,100514.84
2019-05-26T17:26:41.934Z,100514.39
2019-05-26T17:29:13.184Z,100516.18
2019-05-26T17:31:44.608Z,100510.82
2019-05-26T17:34:15.721Z,100509.95
2019-05-26T17:36:47.011Z,100509.94
2019-05-26T17:39:18.271Z,100510.83
2019-05-26T17:41:49.499Z,100500.12
2019-05-26T17:44:20.724Z,100499.23
2019-05-26T17:46:52.037Z,100494.75
2019-05-26T17:49:23.548Z,100496.99
2019-05-26T17:51:55.113Z,100489.39
2019-05-26T17:54:26.357Z,100490.74
2019-05-26T17:56:57.704Z,100485.83
2019-05-26T17:59:28.958Z,100501.47
2019-05-26T18:02:00.160Z,100489.83
2019-05-26T18:04:31.394Z,100497.41
2019-05-26T18:07:02.599Z,100481.80
2019-05-26T18:09:43.658Z,100491.14
2019-05-26T18:12:06.770Z,100484.89
2019-05-26T18:14:37.890Z,100483.54
2019-05-26T18:17:09.315Z,100481.34
2019-05-26T18:19:40.592Z,100489.34
2019-05-26T18:22:12.072Z,100480.41
2019-05-26T18:24:54.654Z,100479.98
2019-05-26T18:27:16.363Z,100485.34
2019-05-26T18:29:47.601Z,100479.99
2019-05-26T18:32:18.800Z,100473.73
2019-05-26T18:34:50.142Z,100474.64
2019-05-26T18:37:21.348Z,100479.53
2019-05-26T18:39:53.796Z,100475.49
2019-05-26T18:42:25.170Z,100469.25
2019-05-26T18:44:56.574Z,100466.58
2019-05-26T18:47:27.951Z,100471.01
2019-05-26T18:49:59.348Z,100475.03
2019-05-26T18:52:30.627Z,100470.13
2019-05-26T18:55:01.971Z,100466.52
2019-05-26T18:57:33.264Z,100465.19
2019-05-26T19:00:05.167Z,100469.63
2019-05-26T19:02:36.449Z,100463.82
2019-05-26T19:05:07.903Z,100474.92
2019-05-26T19:07:39.259Z,100468.67
2019-05-26T19:10:12.378Z,100470.01
2019-05-26T19:12:43.875Z,100468.23
2019-05-26T19:15:16.555Z,100464.20
2019-05-26T19:17:47.759Z,100460.19
2019-05-26T19:20:19.002Z,100464.63
2019-05-26T19:22:53.289Z,100463.73
2019-05-26T19:25:23.313Z,100460.62
2019-05-26T19:27:54.751Z,100464.59
2019-05-26T19:30:25.985Z,100456.14
2019-05-26T19:32:57.693Z,100462.83
2019-05-26T19:35:28.944Z,100467.70
2019-05-26T19:38:00.770Z,100460.12
2019-05-26T19:40:32.038Z,100464.13
2019-05-26T19:43:03.433Z,100462.79
2019-05-26T19:45:34.642Z,100468.14
2019-05-26T19:48:05.958Z,100470.84
2019-05-26T19:50:37.687Z,100472.62
2019-05-26T19:53:08.977Z,100473.48
2019-05-26T19:55:40.243Z,100469.94
2019-05-26T19:58:11.516Z,100465.93
2019-05-26T20:00:42.752Z,100471.71
2019-05-26T20:03:14.226Z,100468.61
2019-05-26T20:05:45.778Z,100465.47
2019-05-26T20:08:17.138Z,100469.04
2019-05-26T20:10:48.458Z,100471.71
2019-05-26T20:13:19.678Z,100464.56
2019-05-26T20:15:51.004Z,100465.47
2019-05-26T20:18:22.185Z,100467.23
2019-05-26T20:20:53.467Z,100465.42
2019-05-26T20:23:24.661Z,100461.84
2019-05-26T20:25:55.866Z,100464.95
2019-05-26T20:28:27.172Z,100456.50
2019-05-26T20:30:58.319Z,100454.73
2019-05-26T20:33:29.681Z,100452.06
2019-05-26T20:36:01.035Z,100452.06
2019-05-26T20:38:33.489Z,100452.50
2019-05-26T20:41:05.326Z,100442.67
2019-05-26T20:43:36.851Z,100444.91
2019-05-26T20:46:09.231Z,100443.10
2019-05-26T20:48:40.416Z,100437.75
2019-05-26T20:51:11.689Z,100436.89
2019-05-26T20:53:42.964Z,100432.41
2019-05-26T20:56:14.357Z,100434.18
2019-05-26T20:58:45.632Z,100429.27
2019-05-26T21:01:16.995Z,100427.50
2019-05-26T21:03:48.613Z,100426.13
2019-05-26T21:06:20.259Z,100425.22
2019-05-26T21:08:51.856Z,100425.69
2019-05-26T21:11:23.143Z,100426.98
2019-05-26T21:13:54.373Z,100423.87
2019-05-26T21:16:25.627Z,100422.98
2019-05-26T21:18:56.999Z,100421.64
2019-05-26T21:21:28.331Z,100422.08
2019-05-26T21:23:59.706Z,100421.63
2019-05-26T21:26:31.102Z,100417.59
2019-05-26T21:29:02.402Z,100425.61
2019-05-26T21:31:33.673Z,100416.72
2019-05-26T21:34:07.347Z,100417.16
2019-05-26T21:36:38.593Z,100419.36
2019-05-26T21:39:09.802Z,100424.27
2019-05-26T21:41:41.055Z,100419.36
2019-05-26T21:44:12.290Z,100413.58
2019-05-26T21:46:43.460Z,100412.25
2019-05-26T21:49:14.761Z,100412.25
2019-05-26T21:51:45.993Z,100406.91
2019-05-26T21:54:17.238Z,100406.00
2019-05-26T21:56:48.665Z,100401.48
2019-05-26T21:59:20.060Z,100398.81
2019-05-26T22:01:51.594Z,100401.05
2019-05-26T22:04:22.804Z,100395.70
2019-05-26T22:06:54.213Z,100390.80
2019-05-26T22:09:25.491Z,100397.48
2019-05-26T22:11:56.895Z,100392.13
2019-05-26T22:16:57.853Z,100389.89
2019-05-26T22:19:29.098Z,100380.98
2019-05-26T22:22:01.373Z,100382.78
2019-05-26T22:24:32.571Z,100378.30
2019-05-26T22:27:03.835Z,100373.86
2019-05-26T22:29:35.189Z,100370.29
2019-05-26T22:32:06.407Z,100369.38
2019-05-26T22:34:37.730Z,100369.34
2019-05-26T22:37:08.934Z,100362.66
2019-05-26T22:39:41.112Z,100365.77
2019-05-26T22:42:12.432Z,100361.28
2019-05-26T22:44:43.718Z,100358.17
2019-05-26T22:47:14.914Z,100353.70
2019-05-26T22:49:46.096Z,100349.65
2019-05-26T22:52:18.240Z,100345.64
2019-05-26T22:54:49.418Z,100348.73
2019-05-26T22:57:20.941Z,100340.73
2019-05-26T22:59:52.237Z,100338.92
2019-05-26T23:02:23.694Z,100340.25
2019-05-26T23:04:54.916Z,100345.59
2019-05-26T23:07:26.192Z,100342.44
2019-05-26T23:09:57.346Z,100340.23
2019-05-26T23:12:28.592Z,100337.09
2019-05-26T23:14:59.844Z,100330.43
2019-05-26T23:17:31.064Z,100323.33
2019-05-26T23:20:02.407Z,100326.00
2019-05-26T23:22:33.619Z,100326.00
2019-05-26T23:25:05.931Z,100326.90
2019-05-26T23:27:37.256Z,100327.77
2019-05-26T23:30:10.022Z,100328.19
2019-05-26T23:32:41.247Z,100327.33
2019-05-26T23:35:13.287Z,100326.84
2019-05-26T23:37:44.533Z,100325.04
2019-05-26T23:40:15.757Z,100323.27
2019-05-26T23:42:46.967Z,100321.45
2019-05-26T23:45:18.223Z,100318.78
2019-05-26T23:47:49.407Z,100319.63
2019-05-26T23:50:20.581Z,100315.16
2019-05-26T23:52:51.773Z,100315.97
2019-05-26T23:55:23.202Z,100320.39
2019-05-26T23:57:54.540Z,100318.58
